createdAt,value
2023-09-06T00:06:26.397Z,15.3
2023-09-06T00:16:27.959Z,15.2
2023-09-06T00:26:29.486Z,15.5
2023-09-06T00:36:30.958Z,15.7
2023-09-06T00:46:32.456Z,15.6
2023-09-06T00:56:34.392Z,15.6
2023-09-06T01:06:36.274Z,15.3
2023-09-06T01:16:37.547Z,15
2023-09-06T01:26:38.696Z,14.7
2023-09-06T01:36:40.674Z,14.5
2023-09-06T01:46:42.529Z,14.2
2023-09-06T01:56:44.293Z,14.4
2023-09-06T02:06:45.649Z,14.5
2023-09-06T02:16:47.129Z,14.4
2023-09-06T02:36:49.843Z,14.3
2023-09-06T02:46:51.467Z,14.5
2023-09-06T02:56:53.143Z,14.6
2023-09-06T02:57:36.854Z,14.6
2023-09-06T03:17:02.334Z,14.2
2023-09-06T03:27:03.534Z,14
2023-09-06T03:37:04.941Z,14
2023-09-06T03:47:06.323Z,13.8
2023-09-06T03:57:07.676Z,13.8
2023-09-06T04:07:09.059Z,13.5
2023-09-06T04:17:10.646Z,13.5
2023-09-06T04:27:12.199Z,13.7
2023-09-06T04:37:13.641Z,13.7
2023-09-06T04:47:15.022Z,13.6
2023-09-06T04:57:16.248Z,13.6
2023-09-06T05:07:17.953Z,13.7
2023-09-06T05:17:19.646Z,13.5
2023-09-06T05:27:21.246Z,14
2023-09-06T05:37:23.250Z,14.8
2023-09-06T05:47:25.287Z,15.4
2023-09-06T05:57:26.716Z,16
2023-09-06T06:07:28.568Z,16.7
2023-09-06T06:17:29.966Z,17.9
2023-09-06T06:27:31.126Z,18.8
2023-09-06T06:37:32.808Z,19.5
2023-09-06T06:47:34.519Z,20.5
2023-09-06T06:57:36.300Z,21
2023-09-06T07:07:37.829Z,21.3
2023-09-06T07:17:39.251Z,22.2
2023-09-06T07:27:41.004Z,22.7
2023-09-06T07:37:42.208Z,23.2
2023-09-06T07:47:44.317Z,23.9
2023-09-06T07:57:45.955Z,24.1
2023-09-06T08:07:47.098Z,24.6
2023-09-06T08:17:49.056Z,24.9
2023-09-06T08:27:50.994Z,25
2023-09-06T08:37:52.896Z,25.5
2023-09-06T08:47:54.084Z,26
2023-09-06T08:57:55.738Z,26.4
2023-09-06T09:07:57.204Z,26.8
2023-09-06T09:18:01.234Z,27.1
2023-09-06T09:38:01.817Z,27.7
2023-09-06T09:48:03.531Z,28.1
2023-09-06T10:08:06.968Z,28.4
2023-09-06T10:18:08.639Z,28.7
2023-09-06T10:28:10.165Z,29.1
2023-09-06T10:38:11.356Z,29.5
2023-09-06T10:48:13.360Z,29.8
2023-09-06T10:58:14.530Z,29.6
2023-09-06T11:08:15.773Z,29.9
2023-09-06T11:48:21.525Z,31
2023-09-06T12:28:28.702Z,31.5
2023-09-06T12:48:32.139Z,31.4
2023-09-06T15:59:02.656Z,31
2023-09-06T16:19:06.258Z,30.5
2023-09-06T16:29:08.806Z,30.2
2023-09-06T16:39:09.394Z,29.7
2023-09-06T16:49:11.279Z,29.4
2023-09-06T16:59:12.909Z,29.5
2023-09-06T17:09:14.075Z,29.4
2023-09-06T17:19:15.261Z,29.1
2023-09-06T17:29:16.986Z,28.7
2023-09-06T17:39:18.472Z,28.1
2023-09-06T17:49:19.770Z,27.4
2023-09-06T17:59:21.579Z,26.7
2023-09-06T18:19:24.546Z,25.1
2023-09-06T18:39:27.193Z,24
2023-09-06T18:49:28.485Z,23.6
2023-09-06T18:59:29.937Z,23.3
2023-09-06T19:09:31.126Z,22.9
2023-09-06T19:19:32.828Z,22.5
2023-09-06T19:29:34.086Z,22.3
2023-09-06T19:39:35.207Z,22
2023-09-06T19:49:37.214Z,21.8
2023-09-06T19:59:38.871Z,21.6
2023-09-06T20:19:41.503Z,20.5
2023-09-06T20:59:49.244Z,19.4
2023-09-06T21:09:50.849Z,19.1
2023-09-06T21:19:52.503Z,19.1
2023-09-06T21:29:53.642Z,18.6
2023-09-06T21:39:55.009Z,18.6
2023-09-06T21:49:56.086Z,17.6
2023-09-06T21:59:57.745Z,17.1
2023-09-06T22:09:59.857Z,16.7
2023-09-06T22:20:01.300Z,16.9
2023-09-06T22:30:02.648Z,17.4
2023-09-06T22:40:03.970Z,17.1
2023-09-06T22:50:06.029Z,16.7
2023-09-06T23:00:07.715Z,16.5
2023-09-06T23:10:09.632Z,16.3
2023-09-06T23:20:10.916Z,17.2
2023-09-06T23:30:12.948Z,17.2
2023-09-06T23:40:14.377Z,16.8
2023-09-06T23:50:15.798Z,16.7
